Port Rexton, Canada
Current Conditions -  °F | °C
As of 6:40 AM on Sunday 26 Oct 2014 (Local Time) from CYYT Reporting Station
Drizzle Drizzle  
Wind Chill: 38°   Ceiling: 200
Heat Index: 45°   Visibility: 0.5mi
Dew Point: 45°   Wind: 13mph
Humidity: 100%   Direction: 30°NNE
Pressure: 29.43"   Gusts: 21mph
Location:  48.4°N, 53.35°W
Report Text: CYYT 260840Z 03011G18KT 1/2SM R11/5500VP6000FT/D DZ FG VV002 07/07 A2943 RMK FG8 SLP968
Loading
Personal Weather Stations






























Interactive Weather Map
Tropical Storm Tracking
New forecast layout! Learn more

10-Day Weather Forecast

Advertisements
Track Severe Weather on mobile